createdAt,value
2023-03-07T00:01:11.839Z,96885.97
2023-03-07T00:03:39.855Z,96898.47
2023-03-07T00:06:12.294Z,96890.94
2023-03-07T00:08:40.634Z,96892.56
2023-03-07T00:11:10.503Z,96886.91
2023-03-07T00:13:39.455Z,96886.91
2023-03-07T00:16:10.046Z,96891.41
2023-03-07T00:18:38.399Z,96890.00
2023-03-07T00:21:11.333Z,96890.81
2023-03-07T00:23:40.892Z,96883.53
2023-03-07T00:26:11.935Z,96885.97
2023-03-07T00:28:40.054Z,96884.69
2023-03-07T00:31:10.609Z,96881.69
2023-03-07T00:33:40.775Z,96879.03
2023-03-07T00:36:15.008Z,96871.53
2023-03-07T00:38:43.584Z,96874.75
2023-03-07T00:41:12.909Z,96868.63
2023-03-07T00:43:41.472Z,96864.94
2023-03-07T00:46:09.998Z,96861.47
2023-03-07T00:48:40.174Z,96867.94
2023-03-07T00:51:12.054Z,96864.72
2023-03-07T00:53:40.534Z,96859.97
2023-03-07T00:56:16.653Z,96856.63
2023-03-07T00:58:44.955Z,96847.03
2023-03-07T01:01:15.087Z,96842.97
2023-03-07T01:03:43.526Z,96839.38
2023-03-07T01:06:16.468Z,96844.38
2023-03-07T01:08:44.743Z,96844.59
2023-03-07T01:11:14.366Z,96840.91
2023-03-07T01:13:42.361Z,96831.88
2023-03-07T01:16:13.063Z,96837.19
2023-03-07T01:18:41.592Z,96842.75
2023-03-07T01:21:16.273Z,96842.75
2023-03-07T01:23:44.382Z,96836.84
2023-03-07T01:26:15.481Z,96840.91
2023-03-07T01:28:44.349Z,96837.44
2023-03-07T01:31:13.009Z,96837.53
2023-03-07T01:33:41.328Z,96833.50
2023-03-07T01:36:19.559Z,96825.75
2023-03-07T01:38:47.856Z,96826.78
2023-03-07T01:41:17.112Z,96828.66
2023-03-07T01:43:45.612Z,96824.38
2023-03-07T01:46:35.718Z,96821.94
2023-03-07T01:49:09.514Z,96824.59
2023-03-07T01:51:42.168Z,96825.41
2023-03-07T01:54:12.087Z,96823.00
2023-03-07T01:56:41.312Z,96816.88
2023-03-07T01:59:09.867Z,96814.44
2023-03-07T02:01:38.441Z,96809.94
2023-03-07T02:04:12.897Z,96801.72
2023-03-07T02:06:42.470Z,96812.13
2023-03-07T02:09:16.926Z,96809.13
2023-03-07T02:11:46.451Z,96810.16
2023-03-07T02:14:14.833Z,96799.06
2023-03-07T02:16:43.421Z,96797.44
2023-03-07T02:19:26.971Z,96792.13
2023-03-07T02:22:08.982Z,96792.47
2023-03-07T02:24:44.901Z,96790.28
2023-03-07T02:27:14.871Z,96786.59
2023-03-07T02:29:42.799Z,96787.03
2023-03-07T02:32:11.638Z,96792.59
2023-03-07T02:34:39.998Z,96784.03
2023-03-07T02:37:13.362Z,96794.69
2023-03-07T02:39:44.021Z,96786.13
2023-03-07T02:42:18.458Z,96787.97
2023-03-07T02:44:46.820Z,96783.69
2023-03-07T02:47:15.191Z,96787.75
2023-03-07T02:49:43.199Z,96786.13
2023-03-07T02:52:11.198Z,96782.66
2023-03-07T02:54:40.767Z,96780.00
2023-03-07T02:57:09.458Z,96778.72
2023-03-07T02:59:38.833Z,96763.59
2023-03-07T03:02:07.012Z,96767.63
2023-03-07T03:04:35.411Z,96758.63
2023-03-07T03:07:03.833Z,96763.81
2023-03-07T03:09:31.795Z,96759.56
2023-03-07T03:12:00.386Z,96750.94
2023-03-07T03:14:28.505Z,96756.59
2023-03-07T03:16:57.855Z,96753.94
2023-03-07T03:19:25.842Z,96750.69
2023-03-07T03:21:53.893Z,96749.88
2023-03-07T03:24:21.979Z,96746.19
2023-03-07T03:26:49.882Z,96742.50
2023-03-07T03:29:18.115Z,96737.59
2023-03-07T03:31:46.444Z,96741.41
2023-03-07T03:34:16.200Z,96744.41
2023-03-07T03:36:44.506Z,96736.69
2023-03-07T03:39:14.561Z,96736.44
2023-03-07T03:41:42.746Z,96745.47
2023-03-07T03:44:11.281Z,96740.94
2023-03-07T03:46:39.296Z,96734.25
2023-03-07T03:49:07.220Z,96736.22
2023-03-07T03:51:36.567Z,96738.63
2023-03-07T03:54:05.033Z,96733.56
2023-03-07T03:56:32.956Z,96735.16
2023-03-07T03:59:01.155Z,96729.97
2023-03-07T04:01:29.884Z,96731.00
2023-03-07T04:03:58.646Z,96728.91
2023-03-07T04:06:29.100Z,96724.16
2023-03-07T04:08:59.514Z,96728.44
2023-03-07T04:11:28.082Z,96728.44
2023-03-07T04:13:56.337Z,96723.69
2023-03-07T04:16:24.372Z,96718.16
2023-03-07T04:18:52.807Z,96718.97
2023-03-07T04:21:21.777Z,96718.50
2023-03-07T04:23:50.678Z,96715.50
2023-03-07T04:26:19.948Z,96705.91
2023-03-07T04:28:49.505Z,96716.78
2023-03-07T04:31:19.493Z,96707.19
2023-03-07T04:33:48.455Z,96713.88
2023-03-07T04:36:17.974Z,96709.94
2023-03-07T04:38:47.157Z,96711.56
2023-03-07T04:41:16.415Z,96707.28
2023-03-07T04:43:45.937Z,96713.06
2023-03-07T04:46:15.957Z,96709.13
2023-03-07T04:48:44.827Z,96708.66
2023-03-07T04:51:13.156Z,96708.09
2023-03-07T04:53:41.422Z,96704.63
2023-03-07T04:56:10.770Z,96701.97
2023-03-07T04:58:40.218Z,96698.50
2023-03-07T05:01:09.845Z,96688.69
2023-03-07T05:03:38.114Z,96690.28
2023-03-07T05:06:08.435Z,96696.41
2023-03-07T05:08:37.002Z,96683.69
2023-03-07T05:11:05.332Z,96686.59
2023-03-07T05:13:33.239Z,96686.59
2023-03-07T05:16:01.565Z,96677.56
2023-03-07T05:18:31.016Z,96689.25
2023-03-07T05:20:59.085Z,96679.66
2023-03-07T05:23:27.853Z,96686.13
2023-03-07T05:25:55.774Z,96668.78
2023-03-07T05:28:23.819Z,96673.53
2023-03-07T05:30:51.882Z,96675.97
2023-03-07T05:33:20.312Z,96678.72
2023-03-07T05:35:49.800Z,96675.72
2023-03-07T05:38:17.863Z,96680.66
2023-03-07T05:40:46.140Z,96669.34
2023-03-07T05:43:14.210Z,96671.44
2023-03-07T05:45:42.467Z,96673.28
2023-03-07T05:48:10.597Z,96682.88
2023-03-07T05:50:39.617Z,96683.13
2023-03-07T05:53:09.346Z,96684.75
2023-03-07T05:55:37.334Z,96673.88
2023-03-07T05:58:05.279Z,96678.13
2023-03-07T06:00:33.348Z,96677.09
2023-03-07T06:03:03.270Z,96678.47
2023-03-07T06:05:31.343Z,96674.53
2023-03-07T06:07:59.314Z,96669.69
2023-03-07T06:10:29.114Z,96662.28
2023-03-07T06:12:57.603Z,96665.19
2023-03-07T06:15:25.739Z,96663.66
2023-03-07T06:17:53.985Z,96660.06
2023-03-07T06:20:22.041Z,96660.53
2023-03-07T06:22:50.400Z,96659.25
2023-03-07T06:25:21.721Z,96646.44
2023-03-07T06:27:51.658Z,96658.19
2023-03-07T06:30:19.663Z,96653.94
2023-03-07T06:32:47.753Z,96653.13
2023-03-07T06:35:15.920Z,96652.31
2023-03-07T06:37:44.286Z,96657.16
2023-03-07T06:40:12.922Z,96656.69
2023-03-07T06:42:40.839Z,96656.59
2023-03-07T06:45:11.105Z,96659.81
2023-03-07T06:47:39.040Z,96659.56
2023-03-07T06:50:08.026Z,96657.72
2023-03-07T06:52:36.264Z,96653.88
2023-03-07T06:55:04.525Z,96655.50
2023-03-07T06:57:33.960Z,96658.47
2023-03-07T07:00:02.414Z,96658.00
2023-03-07T07:02:32.470Z,96663.56
2023-03-07T07:05:02.462Z,96667.13
2023-03-07T07:07:30.651Z,96665.03
2023-03-07T07:09:58.883Z,96668.25
2023-03-07T07:12:26.907Z,96662.94
2023-03-07T07:14:55.107Z,96662.69
2023-03-07T07:17:23.421Z,96655.53
2023-03-07T07:19:52.988Z,96666.25
2023-03-07T07:22:21.056Z,96662.28
2023-03-07T07:24:49.011Z,96658.56
2023-03-07T07:27:16.990Z,96661.78
2023-03-07T07:29:44.961Z,96667.59
2023-03-07T07:32:13.050Z,96664.94
2023-03-07T07:34:41.010Z,96653.31
2023-03-07T07:37:10.359Z,96655.84
2023-03-07T07:39:40.819Z,96653.59
2023-03-07T07:42:08.877Z,96651.41
2023-03-07T07:44:37.732Z,96654.16
2023-03-07T07:47:06.352Z,96646.25
2023-03-07T07:49:34.258Z,96641.72
2023-03-07T07:52:02.694Z,96654.53
2023-03-07T07:54:32.253Z,96644.22
2023-03-07T07:57:00.200Z,96650.69
2023-03-07T07:59:28.088Z,96652.94
2023-03-07T08:01:56.374Z,96654.88
2023-03-07T08:04:24.354Z,96652.50
2023-03-07T08:06:52.568Z,96638.78
2023-03-07T08:09:20.624Z,96639.34
2023-03-07T08:11:50.390Z,96639.16
2023-03-07T08:14:18.759Z,96641.31
2023-03-07T08:16:46.905Z,96632.03
2023-03-07T08:19:14.807Z,96630.25
2023-03-07T08:21:42.937Z,96637.00
2023-03-07T08:24:10.899Z,96637.88
2023-03-07T08:26:38.912Z,96634.53
2023-03-07T08:29:08.529Z,96632.50
2023-03-07T08:31:36.973Z,96635.28
2023-03-07T08:34:05.409Z,96627.09
2023-03-07T08:36:33.547Z,96628.81
2023-03-07T08:39:01.804Z,96627.25
2023-03-07T08:41:30.139Z,96625.13
2023-03-07T08:43:58.090Z,96627.09
2023-03-07T08:46:27.561Z,96620.75
2023-03-07T08:48:55.863Z,96625.88
2023-03-07T08:51:23.887Z,96620.59
2023-03-07T08:53:51.930Z,96619.34
2023-03-07T08:56:24.121Z,96608.22
2023-03-07T08:58:54.208Z,96608.25
2023-03-07T09:01:23.005Z,96610.13
2023-03-07T09:03:56.099Z,96613.78
2023-03-07T09:06:24.642Z,96616.47
2023-03-07T09:08:52.981Z,96604.81
2023-03-07T09:11:21.802Z,96614.00
2023-03-07T09:13:52.753Z,96606.34
2023-03-07T09:16:24.875Z,96595.69
2023-03-07T09:18:54.466Z,96598.63
2023-03-07T09:21:22.600Z,96600.00
2023-03-07T09:23:50.906Z,96597.13
2023-03-07T09:26:19.101Z,96597.94
2023-03-07T09:28:49.395Z,96586.19
2023-03-07T09:31:18.759Z,96583.22
2023-03-07T09:33:47.230Z,96585.34
2023-03-07T09:36:18.306Z,96582.13
2023-03-07T09:38:47.133Z,96593.94
2023-03-07T09:41:44.043Z,96592.34
2023-03-07T09:44:23.008Z,96587.00
2023-03-07T09:47:10.688Z,96588.34
2023-03-07T09:49:47.457Z,96570.19
2023-03-07T09:52:20.940Z,96573.13
2023-03-07T09:54:55.187Z,96573.38
2023-03-07T09:57:27.715Z,96573.91
2023-03-07T09:59:59.775Z,96578.97
2023-03-07T10:02:30.691Z,96575.78
2023-03-07T10:05:05.456Z,96563.72
2023-03-07T10:07:38.989Z,96565.03
2023-03-07T10:10:13.059Z,96559.16
2023-03-07T10:12:57.366Z,96574.13
2023-03-07T10:15:46.564Z,96573.63
2023-03-07T10:18:26.244Z,96573.09
2023-03-07T10:21:06.866Z,96571.50
2023-03-07T10:24:11.411Z,96578.19
2023-03-07T10:26:49.193Z,96569.56
2023-03-07T10:29:22.971Z,96572.25
2023-03-07T10:31:57.341Z,96562.28
2023-03-07T10:34:30.107Z,96565.75
2023-03-07T10:37:09.125Z,96563.06
2023-03-07T10:39:43.589Z,96557.19
2023-03-07T10:42:14.440Z,96563.28
2023-03-07T10:44:45.354Z,96554.47
2023-03-07T10:47:23.603Z,96549.03
2023-03-07T10:49:53.803Z,96543.94
2023-03-07T10:52:32.835Z,96548.19
2023-03-07T10:55:36.151Z,96550.56
2023-03-07T10:58:20.323Z,96542.00
2023-03-07T11:01:04.328Z,96538.25
2023-03-07T11:03:52.471Z,96542.50
2023-03-07T11:06:39.318Z,96540.06
2023-03-07T11:09:17.670Z,96545.38
2023-03-07T11:11:55.578Z,96549.66
2023-03-07T11:14:24.789Z,96552.56
2023-03-07T11:16:55.753Z,96551.47
2023-03-07T11:19:33.680Z,96544.22
2023-03-07T11:22:04.757Z,96544.66
2023-03-07T11:24:44.353Z,96530.28
2023-03-07T11:27:23.454Z,96532.13
2023-03-07T11:30:25.598Z,96530.00
2023-03-07T11:32:58.972Z,96519.59
2023-03-07T11:35:46.162Z,96524.66
2023-03-07T11:38:22.317Z,96525.00
2023-03-07T11:40:56.622Z,96520.97
2023-03-07T11:43:42.928Z,96515.06
2023-03-07T11:46:21.853Z,96522.53
2023-03-07T11:48:57.985Z,96517.16
2023-03-07T11:51:43.657Z,96509.16
2023-03-07T11:54:22.353Z,96513.50
2023-03-07T11:56:54.697Z,96518.31
2023-03-07T11:59:44.616Z,96510.63
2023-03-07T12:02:36.024Z,96510.88
2023-03-07T12:05:19.421Z,96502.91
2023-03-07T12:08:08.504Z,96508.00
2023-03-07T12:10:55.007Z,96502.09
2023-03-07T12:13:37.022Z,96500.53
2023-03-07T12:16:17.218Z,96489.34
2023-03-07T12:19:04.234Z,96483.50
2023-03-07T12:22:04.597Z,96483.25
2023-03-07T12:24:39.514Z,96474.75
2023-03-07T12:27:14.124Z,96484.97
2023-03-07T12:29:47.267Z,96482.06
2023-03-07T12:32:22.701Z,96473.56
2023-03-07T12:34:55.592Z,96465.06
2023-03-07T12:37:28.640Z,96473.38
2023-03-07T12:40:01.465Z,96461.09
2023-03-07T12:42:36.429Z,96456.25
2023-03-07T12:45:10.712Z,96448.78
2023-03-07T12:47:54.087Z,96438.91
2023-03-07T12:50:28.877Z,96443.19
2023-03-07T12:53:01.886Z,96436.53
2023-03-07T12:55:36.392Z,96440.28
2023-03-07T12:58:10.412Z,96424.75
2023-03-07T13:00:43.109Z,96426.34
2023-03-07T13:03:22.886Z,96420.19
2023-03-07T13:05:51.821Z,96431.72
2023-03-07T13:08:24.556Z,96406.28
2023-03-07T13:10:52.612Z,96410.28
2023-03-07T13:13:53.007Z,96404.91
2023-03-07T13:16:36.036Z,96404.63
2023-03-07T13:19:42.917Z,96397.66
2023-03-07T13:22:48.349Z,96399.28
2023-03-07T13:25:51.783Z,96398.53
2023-03-07T13:28:40.053Z,96395.59
2023-03-07T13:31:30.802Z,96401.72
2023-03-07T13:34:40.061Z,96392.91
2023-03-07T13:37:53.449Z,96398.78
2023-03-07T13:40:28.921Z,96398.53
2023-03-07T13:42:58.788Z,96400.94
2023-03-07T13:45:49.469Z,96411.63
2023-03-07T13:48:50.884Z,96398.53
2023-03-07T13:51:18.973Z,96402.53
2023-03-07T13:53:49.325Z,96400.13
2023-03-07T13:56:26.655Z,96391.56
2023-03-07T13:58:59.536Z,96399.31
2023-03-07T14:01:32.934Z,96405.19
2023-03-07T14:04:07.742Z,96389.16
2023-03-07T14:06:40.335Z,96391.56
2023-03-07T14:09:13.702Z,96398.53
2023-03-07T14:11:50.995Z,96396.09
2023-03-07T14:14:41.274Z,96401.19
2023-03-07T14:17:24.635Z,96394.22
2023-03-07T14:20:11.292Z,96400.91
2023-03-07T14:23:00.005Z,96405.44
2023-03-07T14:25:29.114Z,96405.44
2023-03-07T14:27:59.778Z,96401.97
2023-03-07T14:30:32.364Z,96410.78
2023-03-07T14:33:02.353Z,96410.25
2023-03-07T14:35:43.069Z,96417.22
2023-03-07T14:38:19.224Z,96416.41
2023-03-07T14:41:06.525Z,96417.47
2023-03-07T14:43:45.025Z,96429.50
2023-03-07T14:46:26.608Z,96416.66
2023-03-07T14:49:05.975Z,96422.31
2023-03-07T14:51:37.313Z,96423.09
2023-03-07T14:54:09.112Z,96422.84
2023-03-07T14:56:39.076Z,96413.75
2023-03-07T14:59:10.781Z,96407.88
2023-03-07T15:01:45.603Z,96413.47
2023-03-07T15:04:28.475Z,96394.50
2023-03-07T15:06:58.932Z,96395.03
2023-03-07T15:09:27.999Z,96404.38
2023-03-07T15:12:03.575Z,96390.75
2023-03-07T15:14:41.279Z,96397.69
2023-03-07T15:17:17.686Z,96395.84
2023-03-07T15:19:48.417Z,96394.78
2023-03-07T15:22:20.651Z,96401.72
2023-03-07T15:24:51.846Z,96404.66
2023-03-07T15:27:25.390Z,96408.41
2023-03-07T15:29:53.795Z,96399.06
2023-03-07T15:32:36.173Z,96396.91
2023-03-07T15:35:13.761Z,96400.94
2023-03-07T15:37:54.588Z,96403.88
2023-03-07T15:40:33.799Z,96406.53
2023-03-07T15:43:17.905Z,96402.28
2023-03-07T15:46:00.239Z,96402.00
2023-03-07T15:48:36.288Z,96407.88
2023-03-07T15:51:07.772Z,96405.75
2023-03-07T15:53:38.819Z,96403.59
2023-03-07T15:56:17.842Z,96405.19
2023-03-07T15:58:46.828Z,96408.94
2023-03-07T16:01:21.317Z,96410.00
2023-03-07T16:03:52.770Z,96395.84
2023-03-07T16:06:32.593Z,96406.53
2023-03-07T16:09:00.750Z,96395.84
2023-03-07T16:11:29.263Z,96403.59
2023-03-07T16:13:57.409Z,96408.41
2023-03-07T16:16:28.558Z,96402.78
2023-03-07T16:18:58.812Z,96407.06
2023-03-07T16:21:27.071Z,96410.00
2023-03-07T16:23:54.984Z,96409.47
2023-03-07T16:26:25.558Z,96417.78
2023-03-07T16:28:54.877Z,96414.56
2023-03-07T16:31:23.039Z,96418.56
2023-03-07T16:33:51.286Z,96416.44
2023-03-07T16:36:20.703Z,96420.97
2023-03-07T16:38:48.932Z,96412.94
2023-03-07T16:41:18.386Z,96412.97
2023-03-07T16:43:47.444Z,96415.09
2023-03-07T16:46:17.494Z,96416.69
2023-03-07T16:48:46.694Z,96422.56
2023-03-07T16:51:18.111Z,96426.84
2023-03-07T16:53:49.376Z,96421.47
2023-03-07T16:56:24.807Z,96426.00
2023-03-07T16:58:53.860Z,96431.31
2023-03-07T17:01:21.874Z,96435.88
2023-03-07T17:03:50.177Z,96436.34
2023-03-07T17:06:21.674Z,96441.41
2023-03-07T17:08:53.129Z,96448.91
2023-03-07T17:11:23.524Z,96441.13
2023-03-07T17:13:55.243Z,96439.75
2023-03-07T17:16:23.364Z,96443.75
2023-03-07T17:18:51.507Z,96443.44
2023-03-07T17:21:21.397Z,96439.13
2023-03-07T17:23:50.056Z,96448.16
2023-03-07T17:26:25.683Z,96447.91
2023-03-07T17:28:54.995Z,96447.34
2023-03-07T17:31:23.237Z,96446.31
2023-03-07T17:33:51.202Z,96454.06
2023-03-07T17:36:19.246Z,96460.94
2023-03-07T17:38:47.236Z,96463.31
2023-03-07T17:41:15.208Z,96469.66
2023-03-07T17:43:45.152Z,96469.31
2023-03-07T17:46:13.850Z,96478.09
2023-03-07T17:48:41.919Z,96482.03
2023-03-07T17:51:10.409Z,96486.81
2023-03-07T17:53:39.920Z,96485.47
2023-03-07T17:56:08.830Z,96493.97
2023-03-07T17:58:38.485Z,96491.25
2023-03-07T18:01:08.902Z,96496.84
2023-03-07T18:03:36.930Z,96496.03
2023-03-07T18:06:05.484Z,96495.44
2023-03-07T18:08:33.535Z,96502.44
2023-03-07T18:11:04.510Z,96512.84
2023-03-07T18:13:32.744Z,96508.81
2023-03-07T18:16:01.804Z,96507.47
2023-03-07T18:18:34.789Z,96503.19
2023-03-07T18:21:06.002Z,96507.16
2023-03-07T18:23:34.951Z,96517.28
2023-03-07T18:26:04.731Z,96511.13
2023-03-07T18:28:33.116Z,96510.31
2023-03-07T18:31:01.910Z,96509.78
2023-03-07T18:33:30.049Z,96513.00
2023-03-07T18:35:59.837Z,96508.16
2023-03-07T18:38:30.627Z,96515.34
2023-03-07T18:41:05.921Z,96523.09
2023-03-07T18:43:34.806Z,96518.88
2023-03-07T18:46:05.174Z,96514.66
2023-03-07T18:48:34.368Z,96518.69
2023-03-07T18:51:05.903Z,96524.81
2023-03-07T18:53:34.980Z,96518.72
2023-03-07T18:56:04.761Z,96519.78
2023-03-07T18:58:35.356Z,96511.78
2023-03-07T19:01:11.053Z,96516.56
2023-03-07T19:03:39.295Z,96526.44
2023-03-07T19:06:09.248Z,96528.91
2023-03-07T19:08:37.542Z,96530.47
2023-03-07T19:11:07.634Z,96528.91
2023-03-07T19:13:36.197Z,96537.16
2023-03-07T19:16:05.618Z,96536.91
2023-03-07T19:18:39.936Z,96536.66
2023-03-07T19:21:11.234Z,96539.56
2023-03-07T19:23:39.669Z,96540.13
2023-03-07T19:26:14.483Z,96538.00
2023-03-07T19:28:42.937Z,96547.88
2023-03-07T19:31:12.945Z,96552.66
2023-03-07T19:33:42.158Z,96548.13
2023-03-07T19:36:13.914Z,96539.06
2023-03-07T19:38:42.867Z,96543.28
2023-03-07T19:41:13.476Z,96548.13
2023-03-07T19:43:42.650Z,96552.91
2023-03-07T19:46:22.635Z,96547.81
2023-03-07T19:48:55.503Z,96558.09
2023-03-07T19:51:27.660Z,96556.38
2023-03-07T19:53:59.528Z,96554.00
2023-03-07T19:56:33.225Z,96566.25
2023-03-07T19:59:03.777Z,96560.91
2023-03-07T20:01:32.116Z,96561.41
2023-03-07T20:04:01.019Z,96559.84
2023-03-07T20:06:34.070Z,96564.88
2023-03-07T20:09:03.396Z,96558.75
2023-03-07T20:11:33.243Z,96557.44
2023-03-07T20:14:05.090Z,96564.09
2023-03-07T20:16:34.245Z,96572.38
2023-03-07T20:19:04.001Z,96569.25
2023-03-07T20:21:37.104Z,96563.56
2023-03-07T20:24:06.251Z,96562.28
2023-03-07T20:26:36.692Z,96558.50
2023-03-07T20:29:07.656Z,96560.91
2023-03-07T20:31:37.640Z,96551.84
2023-03-07T20:34:06.365Z,96557.69
2023-03-07T20:36:39.223Z,96558.50
2023-03-07T20:39:10.310Z,96559.56
2023-03-07T20:41:38.654Z,96569.66
2023-03-07T20:44:08.279Z,96574.19
2023-03-07T20:46:42.376Z,96577.72
2023-03-07T20:49:15.746Z,96571.28
2023-03-07T20:51:47.613Z,96582.75
2023-03-07T20:54:19.349Z,96578.31
2023-03-07T20:56:51.851Z,96583.84
2023-03-07T20:59:23.862Z,96585.72
2023-03-07T21:01:52.884Z,96590.31
2023-03-07T21:04:25.886Z,96580.88
2023-03-07T21:07:07.433Z,96584.09
2023-03-07T21:09:40.382Z,96587.06
2023-03-07T21:12:13.135Z,96587.34
2023-03-07T21:14:44.151Z,96582.50
2023-03-07T21:18:07.905Z,96584.66
2023-03-07T21:20:19.945Z,96580.63
2023-03-07T21:22:55.401Z,96582.81
2023-03-07T21:25:28.318Z,96588.13
2023-03-07T21:28:41.633Z,96593.53
2023-03-07T21:35:22.728Z,96601.72
2023-03-07T21:41:23.746Z,96620.34
2023-03-07T21:44:34.444Z,96614.19
2023-03-07T21:47:17.196Z,96626.78
2023-03-07T21:49:48.132Z,96632.38
2023-03-07T21:52:16.408Z,96625.44
2023-03-07T21:54:49.096Z,96635.28
2023-03-07T21:57:18.489Z,96638.75
2023-03-07T21:59:47.857Z,96639.06
2023-03-07T22:02:15.884Z,96646.81
2023-03-07T22:04:44.100Z,96647.88
2023-03-07T22:07:13.992Z,96648.69
2023-03-07T22:09:42.212Z,96636.91
2023-03-07T22:12:11.518Z,96638.31
2023-03-07T22:14:39.743Z,96646.50
2023-03-07T22:17:09.625Z,96652.09
2023-03-07T22:19:37.843Z,96647.56
2023-03-07T22:22:05.934Z,96652.34
2023-03-07T22:24:34.272Z,96648.06
2023-03-07T22:27:02.289Z,96651.53
2023-03-07T22:29:31.619Z,96654.75
2023-03-07T22:31:59.958Z,96655.63
2023-03-07T22:34:28.176Z,96652.91
2023-03-07T22:36:57.519Z,96654.88
2023-03-07T22:39:25.580Z,96654.28
2023-03-07T22:41:53.876Z,96653.72
2023-03-07T22:44:21.904Z,96649.19
2023-03-07T22:46:52.010Z,96661.47
2023-03-07T22:49:20.433Z,96651.84
2023-03-07T22:51:48.757Z,96662.56
2023-03-07T22:54:16.978Z,96653.97
2023-03-07T22:56:44.916Z,96655.53
2023-03-07T22:59:12.940Z,96649.69
2023-03-07T23:01:41.232Z,96649.69
2023-03-07T23:04:10.833Z,96643.28
2023-03-07T23:06:39.375Z,96638.75
2023-03-07T23:09:09.694Z,96641.91
2023-03-07T23:11:37.736Z,96640.78
2023-03-07T23:14:06.142Z,96648.72
2023-03-07T23:16:36.250Z,96654.94
2023-03-07T23:19:05.149Z,96643.53
2023-03-07T23:21:35.021Z,96658.09
2023-03-07T23:24:04.218Z,96654.81
2023-03-07T23:26:33.955Z,96670.81
2023-03-07T23:29:03.114Z,96666.22
2023-03-07T23:31:32.679Z,96672.59
2023-03-07T23:34:02.755Z,96673.91
2023-03-07T23:36:32.494Z,96676.00
2023-03-07T23:39:02.246Z,96673.28
2023-03-07T23:41:30.164Z,96670.19
2023-03-07T23:44:00.476Z,96664.97
2023-03-07T23:46:29.383Z,96669.75
2023-03-07T23:48:58.066Z,96665.84
2023-03-07T23:51:26.797Z,96663.75
2023-03-07T23:53:54.811Z,96671.59
2023-03-07T23:56:24.104Z,96674.50
2023-03-07T23:58:52.672Z,96675.00
